createdAt,value
2017-08-01T00:00:53.689Z,19.10
2017-08-01T00:03:21.542Z,19.00
2017-08-01T00:05:49.082Z,18.90
2017-08-01T00:08:16.634Z,18.90
2017-08-01T00:10:45.281Z,18.70
2017-08-01T00:13:12.816Z,18.70
2017-08-01T00:15:40.358Z,18.70
2017-08-01T00:18:07.942Z,18.70
2017-08-01T00:20:35.786Z,18.70
2017-08-01T00:23:03.329Z,18.80
2017-08-01T00:25:31.635Z,18.80
2017-08-01T00:27:59.211Z,18.70
2017-08-01T00:30:26.750Z,18.80
2017-08-01T00:32:54.834Z,18.80
2017-08-01T00:35:22.376Z,18.70
2017-08-01T00:37:49.933Z,18.70
2017-08-01T00:40:17.524Z,18.70
2017-08-01T00:42:45.063Z,18.70
2017-08-01T00:45:13.002Z,18.70
2017-08-01T00:47:41.326Z,18.60
2017-08-01T00:50:08.877Z,18.60
2017-08-01T00:52:36.625Z,18.60
2017-08-01T00:55:04.209Z,18.60
2017-08-01T00:57:31.760Z,18.60
2017-08-01T00:59:59.333Z,18.60
2017-08-01T01:02:26.873Z,18.60
2017-08-01T01:04:54.530Z,18.60
2017-08-01T01:07:22.078Z,18.60
2017-08-01T01:09:50.425Z,18.50
2017-08-01T01:12:18.021Z,18.50
2017-08-01T01:14:45.560Z,18.40
2017-08-01T01:17:13.138Z,18.40
2017-08-01T01:19:41.746Z,18.40
2017-08-01T01:22:09.749Z,18.30
2017-08-01T01:24:37.297Z,18.40
2017-08-01T01:27:04.833Z,18.40
2017-08-01T01:29:32.841Z,18.40
2017-08-01T01:32:00.386Z,18.40
2017-08-01T01:34:27.926Z,18.40
2017-08-01T01:36:55.500Z,18.40
2017-08-01T01:39:23.121Z,18.30
2017-08-01T01:41:51.429Z,18.30
2017-08-01T01:44:19.010Z,18.30
2017-08-01T01:46:46.553Z,18.30
2017-08-01T01:49:14.140Z,18.30
2017-08-01T01:51:41.682Z,18.30
2017-08-01T01:54:10.595Z,18.30
2017-08-01T01:56:38.152Z,18.30
2017-08-01T01:59:05.721Z,18.30
2017-08-01T02:01:33.263Z,18.20
2017-08-01T02:04:03.294Z,18.10
2017-08-01T02:06:30.826Z,18.10
2017-08-01T02:08:58.447Z,18.20
2017-08-01T02:11:31.709Z,18.20
2017-08-01T02:13:59.285Z,18.10
2017-08-01T02:16:26.822Z,18.20
2017-08-01T02:18:54.368Z,18.10
2017-08-01T02:21:22.206Z,18.20
2017-08-01T02:23:49.749Z,18.10
2017-08-01T02:26:23.213Z,18.00
2017-08-01T02:28:50.758Z,18.00
2017-08-01T02:31:18.323Z,18.00
2017-08-01T02:33:45.982Z,18.00
2017-08-01T02:36:13.524Z,18.00
2017-08-01T02:38:42.385Z,18.00
2017-08-01T02:41:10.690Z,18.00
2017-08-01T02:43:38.230Z,18.00
2017-08-01T02:46:05.810Z,18.00
2017-08-01T02:48:33.354Z,18.00
2017-08-01T02:51:00.946Z,17.90
2017-08-01T02:53:28.578Z,17.90
2017-08-01T02:55:56.126Z,17.90
2017-08-01T02:58:24.153Z,17.90
2017-08-01T03:00:51.701Z,17.90
2017-08-01T03:03:19.250Z,17.90
2017-08-01T03:05:47.141Z,17.90
2017-08-01T03:08:14.681Z,17.90
2017-08-01T03:10:42.222Z,17.90
2017-08-01T03:13:09.800Z,17.90
2017-08-01T03:15:37.343Z,17.90
2017-08-01T03:18:08.545Z,17.90
2017-08-01T03:20:36.349Z,17.90
2017-08-01T03:23:04.466Z,17.90
2017-08-01T03:25:32.005Z,17.90
2017-08-01T03:27:59.551Z,17.90
2017-08-01T03:30:27.271Z,17.90
2017-08-01T03:32:54.853Z,17.90
2017-08-01T03:35:23.175Z,17.90
2017-08-01T03:37:51.369Z,17.90
2017-08-01T03:40:18.910Z,17.90
2017-08-01T03:42:46.457Z,17.80
2017-08-01T03:45:14.037Z,17.90
2017-08-01T03:47:41.621Z,17.80
2017-08-01T03:50:09.157Z,17.80
2017-08-01T03:52:36.740Z,17.80
2017-08-01T03:55:05.150Z,17.80
2017-08-01T03:57:33.656Z,17.80
2017-08-01T04:00:01.196Z,17.80
2017-08-01T04:02:29.500Z,17.80
2017-08-01T04:04:57.083Z,17.80
2017-08-01T04:07:24.624Z,17.80
2017-08-01T04:09:52.352Z,17.80
2017-08-01T04:12:20.688Z,17.90
2017-08-01T04:14:48.272Z,17.80
2017-08-01T04:17:15.819Z,17.80
2017-08-01T04:19:43.404Z,17.90
2017-08-01T04:22:12.009Z,17.80
2017-08-01T04:24:39.926Z,17.80
2017-08-01T04:27:07.481Z,17.90
2017-08-01T04:29:35.026Z,17.90
2017-08-01T04:32:04.073Z,17.90
2017-08-01T04:34:32.381Z,17.90
2017-08-01T04:36:59.932Z,17.90
2017-08-01T04:39:28.038Z,17.90
2017-08-01T04:41:56.130Z,17.90
2017-08-01T04:44:23.906Z,18.00
2017-08-01T04:46:51.454Z,18.00
2017-08-01T04:49:19.317Z,18.00
2017-08-01T04:51:46.844Z,18.00
2017-08-01T04:54:14.381Z,18.10
2017-08-01T04:56:42.925Z,18.10
2017-08-01T04:59:10.516Z,18.10
2017-08-01T05:01:38.821Z,18.20
2017-08-01T05:04:06.469Z,18.20
2017-08-01T05:06:34.784Z,18.20
2017-08-01T05:09:02.326Z,18.20
2017-08-01T05:11:30.097Z,18.20
2017-08-01T05:13:57.645Z,18.20
2017-08-01T05:16:25.228Z,18.30
2017-08-01T05:18:52.776Z,18.30
2017-08-01T05:21:24.269Z,18.30
2017-08-01T05:23:51.813Z,18.30
2017-08-01T05:26:19.349Z,18.30
2017-08-01T05:28:46.930Z,18.40
2017-08-01T05:31:14.513Z,18.40
2017-08-01T05:33:42.048Z,18.40
2017-08-01T05:36:09.629Z,18.40
2017-08-01T05:38:37.169Z,18.40
2017-08-01T05:41:05.043Z,18.50
2017-08-01T05:43:32.591Z,18.50
2017-08-01T05:46:00.281Z,18.50
2017-08-01T05:48:27.821Z,18.50
2017-08-01T05:50:55.365Z,18.60
2017-08-01T05:53:23.000Z,18.60
2017-08-01T05:55:50.544Z,18.60
2017-08-01T05:58:18.888Z,18.70
2017-08-01T06:00:46.429Z,18.70
2017-08-01T06:03:14.416Z,18.70
2017-08-01T06:05:41.965Z,18.70
2017-08-01T06:08:09.831Z,18.80
2017-08-01T06:10:37.715Z,18.90
2017-08-01T06:13:05.265Z,18.90
2017-08-01T06:15:32.814Z,19.00
2017-08-01T06:18:00.693Z,19.00
2017-08-01T06:20:28.246Z,19.10
2017-08-01T06:22:55.789Z,19.10
2017-08-01T06:25:23.385Z,19.10
2017-08-01T06:27:50.937Z,19.20
2017-08-01T06:30:18.590Z,19.20
2017-08-01T06:32:46.140Z,19.30
2017-08-01T06:35:13.694Z,19.30
2017-08-01T06:37:41.288Z,19.30
2017-08-01T06:40:08.837Z,19.40
2017-08-01T06:42:36.432Z,19.40
2017-08-01T06:45:05.192Z,19.50
2017-08-01T06:47:32.749Z,19.40
2017-08-01T06:50:00.302Z,19.50
2017-08-01T06:52:27.959Z,19.50
2017-08-01T06:54:55.933Z,19.60
2017-08-01T06:57:23.485Z,19.70
2017-08-01T06:59:51.129Z,19.70
2017-08-01T07:02:18.677Z,19.80
2017-08-01T07:04:46.229Z,19.90
2017-08-01T07:07:13.969Z,19.90
2017-08-01T07:09:42.337Z,20.00
2017-08-01T07:12:09.892Z,20.10
2017-08-01T07:14:37.441Z,20.10
2017-08-01T07:17:05.028Z,20.20
2017-08-01T07:19:32.577Z,20.20
2017-08-01T07:22:00.325Z,20.20
2017-08-01T07:24:27.914Z,20.20
2017-08-01T07:26:55.466Z,20.20
2017-08-01T07:29:23.062Z,20.20
2017-08-01T07:31:51.377Z,20.20
2017-08-01T07:34:22.698Z,20.20
2017-08-01T07:36:50.253Z,20.20
2017-08-01T07:39:18.118Z,20.20
2017-08-01T07:41:45.990Z,20.20
2017-08-01T07:44:13.544Z,20.20
2017-08-01T07:46:41.857Z,20.20
2017-08-01T07:49:09.446Z,20.20
2017-08-01T07:51:36.991Z,20.30
2017-08-01T07:54:04.589Z,20.30
2017-08-01T07:56:32.297Z,20.30
2017-08-01T07:58:59.884Z,20.30
2017-08-01T08:01:27.473Z,20.30
2017-08-01T08:03:55.077Z,20.40
2017-08-01T08:06:22.989Z,20.40
2017-08-01T08:08:50.529Z,20.40
2017-08-01T08:11:18.120Z,20.40
2017-08-01T08:13:45.670Z,20.40
2017-08-01T08:16:13.797Z,20.40
2017-08-01T08:18:41.345Z,20.40
2017-08-01T08:21:08.893Z,20.30
2017-08-01T08:23:36.486Z,20.30
2017-08-01T08:26:04.072Z,20.30
2017-08-01T08:28:31.621Z,20.30
2017-08-01T08:30:59.208Z,20.20
2017-08-01T08:33:26.757Z,20.20
2017-08-01T08:35:54.624Z,20.20
2017-08-01T08:38:22.238Z,20.20
2017-08-01T08:40:49.785Z,20.10
2017-08-01T08:43:18.177Z,20.00
2017-08-01T08:45:45.791Z,20.00
2017-08-01T08:48:13.337Z,20.00
2017-08-01T08:50:40.949Z,19.90
2017-08-01T08:53:08.509Z,19.80
2017-08-01T08:55:36.929Z,19.50
2017-08-01T08:58:04.484Z,19.50
2017-08-01T09:00:32.137Z,19.40
2017-08-01T09:02:59.685Z,19.30
2017-08-01T09:05:27.276Z,19.30
2017-08-01T09:07:55.222Z,19.30
2017-08-01T09:10:22.942Z,19.30
2017-08-01T09:12:55.813Z,19.20
2017-08-01T09:15:23.363Z,19.30
2017-08-01T09:17:50.919Z,19.30
2017-08-01T09:20:18.930Z,19.40
2017-08-01T09:22:47.253Z,19.50
2017-08-01T09:25:14.801Z,19.40
2017-08-01T09:27:43.317Z,19.50
2017-08-01T09:30:10.872Z,19.60
2017-08-01T09:32:38.418Z,19.70
2017-08-01T09:35:06.012Z,19.80
2017-08-01T09:37:34.180Z,19.90
2017-08-01T09:40:01.731Z,20.00
2017-08-01T09:42:29.285Z,20.10
2017-08-01T09:44:57.269Z,20.10
2017-08-01T09:47:24.826Z,20.20
2017-08-01T09:49:52.372Z,20.30
2017-08-01T09:52:20.466Z,20.50
2017-08-01T09:54:48.006Z,20.70
2017-08-01T09:57:15.554Z,20.80
2017-08-01T09:59:43.150Z,21.00
2017-08-01T10:02:10.696Z,21.10
2017-08-01T10:04:38.278Z,21.30
2017-08-01T10:07:05.879Z,21.40
2017-08-01T10:09:33.734Z,21.50
2017-08-01T10:12:01.275Z,21.60
2017-08-01T10:14:28.861Z,21.70
2017-08-01T10:16:57.702Z,21.70
2017-08-01T10:19:25.233Z,21.60
2017-08-01T10:21:52.898Z,21.70
2017-08-01T10:24:20.440Z,21.90
2017-08-01T10:26:48.030Z,21.90
2017-08-01T10:29:15.561Z,21.90
2017-08-01T10:31:43.138Z,21.80
2017-08-01T10:34:10.690Z,21.80
2017-08-01T10:36:38.418Z,21.70
2017-08-01T10:39:06.722Z,21.90
2017-08-01T10:41:34.418Z,21.80
2017-08-01T10:44:01.955Z,22.00
2017-08-01T10:46:29.685Z,22.20
2017-08-01T10:48:57.989Z,22.60
2017-08-01T10:51:25.528Z,22.60
2017-08-01T10:53:53.366Z,22.70
2017-08-01T10:56:20.906Z,22.70
2017-08-01T10:58:48.486Z,22.60
2017-08-01T11:01:16.023Z,22.60
2017-08-01T11:03:44.018Z,22.60
2017-08-01T11:06:11.702Z,22.50
2017-08-01T11:08:39.240Z,22.50
2017-08-01T11:11:07.010Z,22.50
2017-08-01T11:13:39.882Z,22.50
2017-08-01T11:16:07.430Z,22.50
2017-08-01T11:18:34.976Z,22.50
2017-08-01T11:21:02.553Z,22.60
2017-08-01T11:23:32.685Z,22.60
2017-08-01T11:26:00.229Z,22.60
2017-08-01T11:28:27.765Z,22.60
2017-08-01T11:30:55.402Z,22.50
2017-08-01T11:33:24.155Z,22.40
2017-08-01T11:35:51.697Z,22.40
2017-08-01T11:38:19.245Z,22.40
2017-08-01T11:40:46.823Z,22.30
2017-08-01T11:43:14.371Z,22.30
2017-08-01T11:45:42.228Z,22.30
2017-08-01T11:48:09.758Z,22.20
2017-08-01T11:50:38.100Z,22.30
2017-08-01T11:53:05.677Z,22.20
2017-08-01T11:55:33.256Z,22.30
2017-08-01T11:58:00.806Z,22.30
2017-08-01T12:00:28.593Z,22.40
2017-08-01T12:02:57.275Z,22.50
2017-08-01T12:05:25.577Z,22.60
2017-08-01T12:07:53.110Z,22.50
2017-08-01T12:10:20.686Z,22.60
2017-08-01T12:12:48.221Z,22.70
2017-08-01T12:15:16.974Z,22.70
2017-08-01T12:17:44.504Z,22.70
2017-08-01T12:20:12.043Z,22.70
2017-08-01T12:22:39.857Z,22.70
2017-08-01T12:25:07.928Z,22.70
2017-08-01T12:27:35.461Z,22.80
2017-08-01T12:30:06.796Z,22.90
2017-08-01T12:32:34.377Z,22.90
2017-08-01T12:35:01.952Z,22.90
2017-08-01T12:37:29.497Z,23.00
2017-08-01T12:39:57.038Z,23.00
2017-08-01T12:42:27.416Z,22.90
2017-08-01T12:44:54.963Z,22.90
2017-08-01T12:47:25.416Z,22.80
2017-08-01T12:49:53.322Z,22.80
2017-08-01T12:52:20.861Z,22.80
2017-08-01T12:54:48.441Z,22.70
2017-08-01T12:57:16.361Z,22.70
2017-08-01T12:59:43.916Z,22.70
2017-08-01T13:02:11.457Z,22.70
2017-08-01T13:04:41.897Z,22.60
2017-08-01T13:07:09.430Z,22.60
2017-08-01T13:09:36.965Z,22.60
2017-08-01T13:12:04.537Z,22.70
2017-08-01T13:14:32.113Z,22.80
2017-08-01T13:16:59.698Z,22.90
2017-08-01T13:19:27.238Z,23.00
2017-08-01T13:21:54.881Z,23.00
2017-08-01T13:24:22.796Z,23.00
2017-08-01T13:26:50.513Z,22.90
2017-08-01T13:29:18.489Z,22.90
2017-08-01T13:31:47.324Z,22.90
2017-08-01T13:34:15.608Z,22.90
2017-08-01T13:36:43.640Z,23.00
2017-08-01T13:39:13.298Z,23.20
2017-08-01T13:41:43.238Z,23.30
2017-08-01T13:44:12.857Z,23.40
2017-08-01T13:46:41.483Z,23.40
2017-08-01T13:49:09.990Z,23.40
2017-08-01T13:51:39.637Z,23.50
2017-08-01T13:54:08.292Z,23.50
2017-08-01T13:56:36.862Z,23.50
2017-08-01T13:59:05.766Z,23.40
2017-08-01T14:01:34.977Z,23.40
2017-08-01T14:04:03.097Z,23.40
2017-08-01T14:06:31.535Z,23.30
2017-08-01T14:11:18.877Z,23.20
2017-08-01T14:13:47.403Z,23.20
2017-08-01T14:16:15.254Z,23.20
2017-08-01T14:18:42.800Z,23.10
2017-08-01T14:21:10.346Z,23.10
2017-08-01T14:23:43.089Z,23.00
2017-08-01T14:26:10.633Z,23.00
2017-08-01T14:28:38.298Z,23.00
2017-08-01T14:31:05.843Z,23.00
2017-08-01T14:33:33.423Z,23.00
2017-08-01T14:36:01.005Z,23.00
2017-08-01T14:38:28.546Z,23.00
2017-08-01T14:40:56.133Z,23.10
2017-08-01T14:43:24.081Z,23.20
2017-08-01T14:45:51.619Z,23.20
2017-08-01T14:48:19.162Z,23.20
2017-08-01T14:50:47.300Z,23.20
2017-08-01T14:53:15.612Z,23.20
2017-08-01T14:55:43.206Z,23.20
2017-08-01T14:58:10.747Z,23.20
2017-08-01T15:00:38.281Z,23.20
2017-08-01T15:03:05.870Z,23.20
2017-08-01T15:05:35.053Z,23.30
2017-08-01T15:08:02.592Z,23.30
2017-08-01T15:10:30.924Z,23.30
2017-08-01T15:12:58.461Z,23.30
2017-08-01T15:15:26.006Z,23.30
2017-08-01T15:17:54.828Z,23.40
2017-08-01T15:20:22.365Z,23.40
2017-08-01T15:22:49.943Z,23.50
2017-08-01T15:25:17.486Z,23.70
2017-08-01T15:27:45.391Z,23.90
2017-08-01T15:30:12.932Z,24.00
2017-08-01T15:32:40.474Z,24.20
2017-08-01T15:35:09.601Z,24.30
2017-08-01T15:37:37.138Z,24.40
2017-08-01T15:40:04.674Z,24.40
2017-08-01T15:42:32.421Z,24.50
2017-08-01T15:45:00.750Z,24.50
2017-08-01T15:47:28.284Z,24.50
2017-08-01T15:49:56.065Z,24.50
2017-08-01T15:52:23.602Z,24.50
2017-08-01T15:54:51.633Z,24.40
2017-08-01T15:57:19.165Z,24.40
2017-08-01T15:59:46.701Z,24.40
2017-08-01T16:02:14.909Z,24.40
2017-08-01T16:04:42.446Z,24.30
2017-08-01T16:07:10.394Z,24.30
2017-08-01T16:09:38.241Z,24.20
2017-08-01T16:12:05.778Z,24.20
2017-08-01T16:14:33.317Z,24.20
2017-08-01T16:17:01.153Z,24.20
2017-08-01T16:19:28.697Z,24.10
2017-08-01T16:21:56.997Z,24.10
2017-08-01T16:24:25.058Z,24.10
2017-08-01T16:26:52.614Z,24.00
2017-08-01T16:29:20.913Z,24.10
2017-08-01T16:31:50.964Z,24.10
2017-08-01T16:34:18.540Z,24.10
2017-08-01T16:36:47.412Z,24.10
2017-08-01T16:39:15.006Z,24.10
2017-08-01T16:41:43.313Z,24.10
2017-08-01T16:44:10.858Z,24.00
2017-08-01T16:46:39.362Z,24.00
2017-08-01T16:49:06.893Z,24.00
2017-08-01T16:51:35.641Z,23.80
2017-08-01T16:54:03.183Z,23.80
2017-08-01T16:56:30.730Z,23.80
2017-08-01T16:58:58.448Z,23.70
2017-08-01T17:01:26.029Z,23.70
2017-08-01T17:03:54.339Z,23.60
2017-08-01T17:06:23.569Z,23.60
2017-08-01T17:08:51.493Z,23.60
2017-08-01T17:11:19.042Z,23.60
2017-08-01T17:13:46.630Z,23.70
2017-08-01T17:16:14.181Z,23.60
2017-08-01T17:18:42.153Z,23.60
2017-08-01T17:21:09.697Z,23.60
2017-08-01T17:23:37.245Z,23.60
2017-08-01T17:26:05.601Z,23.50
2017-08-01T17:28:33.146Z,23.50
2017-08-01T17:31:00.737Z,23.50
2017-08-01T17:33:29.048Z,23.40
2017-08-01T17:35:56.828Z,23.30
2017-08-01T17:38:24.386Z,23.30
2017-08-01T17:40:52.281Z,23.30
2017-08-01T17:43:19.830Z,23.20
2017-08-01T17:45:48.833Z,23.20
2017-08-01T17:48:16.382Z,23.20
2017-08-01T17:50:43.936Z,23.20
2017-08-01T17:53:11.726Z,23.10
2017-08-01T17:55:39.278Z,23.10
2017-08-01T17:58:06.873Z,23.00
2017-08-01T18:00:35.237Z,22.90
2017-08-01T18:03:02.874Z,22.90
2017-08-01T18:05:30.705Z,22.80
2017-08-01T18:07:58.257Z,22.80
2017-08-01T18:10:26.177Z,22.80
2017-08-01T18:12:53.718Z,22.70
2017-08-01T18:15:21.708Z,22.70
2017-08-01T18:17:49.256Z,22.70
2017-08-01T18:20:16.798Z,22.70
2017-08-01T18:22:44.385Z,22.60
2017-08-01T18:25:12.134Z,22.60
2017-08-01T18:27:39.676Z,22.60
2017-08-01T18:30:07.221Z,22.50
2017-08-01T18:32:35.238Z,22.40
2017-08-01T18:35:02.785Z,22.30
2017-08-01T18:37:30.337Z,22.30
2017-08-01T18:39:58.106Z,22.20
2017-08-01T18:42:25.654Z,22.10
2017-08-01T18:44:53.273Z,22.10
2017-08-01T18:47:20.817Z,22.00
2017-08-01T18:49:48.357Z,22.00
2017-08-01T18:52:16.228Z,21.90
2017-08-01T18:54:43.770Z,21.90
2017-08-01T18:57:11.315Z,21.80
2017-08-01T18:59:39.213Z,21.80
2017-08-01T19:02:06.749Z,21.80
2017-08-01T19:04:34.345Z,21.80
2017-08-01T19:07:02.028Z,21.70
2017-08-01T19:09:29.909Z,21.70
2017-08-01T19:11:57.456Z,21.60
2017-08-01T19:14:25.005Z,21.60
2017-08-01T19:16:52.709Z,21.60
2017-08-01T19:19:20.298Z,21.50
2017-08-01T19:21:47.842Z,21.50
2017-08-01T19:24:15.505Z,21.50
2017-08-01T19:26:43.050Z,21.50
2017-08-01T19:29:11.073Z,21.50
2017-08-01T19:31:38.616Z,21.50
2017-08-01T19:34:06.162Z,21.40
2017-08-01T19:36:34.062Z,21.40
2017-08-01T19:39:01.603Z,21.30
2017-08-01T19:41:29.149Z,21.30
2017-08-01T19:43:56.742Z,21.20
2017-08-01T19:46:24.394Z,21.20
2017-08-01T19:48:51.934Z,21.20
2017-08-01T19:51:19.930Z,21.10
2017-08-01T19:53:47.554Z,21.10
2017-08-01T19:56:15.103Z,21.00
2017-08-01T19:58:43.132Z,21.00
2017-08-01T20:01:10.680Z,20.90
2017-08-01T20:03:38.233Z,20.90
2017-08-01T20:06:05.834Z,20.90
2017-08-01T20:08:33.376Z,20.80
2017-08-01T20:11:00.931Z,20.70
2017-08-01T20:13:28.525Z,20.70
2017-08-01T20:15:56.068Z,20.70
2017-08-01T20:18:23.936Z,20.60
2017-08-01T20:20:51.499Z,20.50
2017-08-01T20:23:19.042Z,20.40
2017-08-01T20:25:47.006Z,20.30
2017-08-01T20:28:14.550Z,20.20
2017-08-01T20:30:42.138Z,20.20
2017-08-01T20:33:09.722Z,20.10
2017-08-01T20:35:37.652Z,20.10
2017-08-01T20:38:05.198Z,20.10
2017-08-01T20:40:32.745Z,20.10
2017-08-01T20:43:00.654Z,20.00
2017-08-01T20:45:28.205Z,20.00
2017-08-01T20:47:55.785Z,20.00
2017-08-01T20:50:24.105Z,20.00
2017-08-01T20:52:51.752Z,20.00
2017-08-01T20:55:22.007Z,20.00
2017-08-01T20:57:49.748Z,20.00
2017-08-01T21:00:17.298Z,19.90
2017-08-01T21:02:44.994Z,19.80
2017-08-01T21:05:12.537Z,19.80
2017-08-01T21:07:40.073Z,19.70
2017-08-01T21:10:08.448Z,19.60
2017-08-01T21:12:36.761Z,19.60
2017-08-01T21:15:04.509Z,19.60
2017-08-01T21:17:32.054Z,19.50
2017-08-01T21:20:00.402Z,19.40
2017-08-01T21:22:27.954Z,19.40
2017-08-01T21:24:56.134Z,19.30
2017-08-01T21:27:23.698Z,19.30
2017-08-01T21:29:51.249Z,19.30
2017-08-01T21:32:21.577Z,19.20
2017-08-01T21:34:49.126Z,19.20
2017-08-01T21:37:16.665Z,19.20
2017-08-01T21:39:45.791Z,19.10
2017-08-01T21:42:13.341Z,19.20
2017-08-01T21:44:40.886Z,19.10
2017-08-01T21:47:08.665Z,19.10
2017-08-01T21:49:36.265Z,19.10
2017-08-01T21:52:04.580Z,19.00
2017-08-01T21:54:32.130Z,19.00
2017-08-01T21:57:00.042Z,19.00
2017-08-01T21:59:27.602Z,18.90
2017-08-01T22:01:55.145Z,18.90
2017-08-01T22:04:22.764Z,18.80
2017-08-01T22:06:51.077Z,18.70
2017-08-01T22:09:18.620Z,18.70
2017-08-01T22:11:46.537Z,18.70
2017-08-01T22:14:14.087Z,18.70
2017-08-01T22:16:41.638Z,18.60
2017-08-01T22:19:09.238Z,18.60
2017-08-01T22:21:36.825Z,18.60
2017-08-01T22:24:04.376Z,18.60
2017-08-01T22:26:33.016Z,18.50
2017-08-01T22:29:00.563Z,18.50
2017-08-01T22:31:28.530Z,18.50
2017-08-01T22:33:56.086Z,18.40
2017-08-01T22:36:23.643Z,18.40
2017-08-01T22:38:51.237Z,18.40
2017-08-01T22:41:18.785Z,18.40
2017-08-01T22:43:46.374Z,18.30
2017-08-01T22:46:14.692Z,18.20
2017-08-01T22:48:42.277Z,18.20
2017-08-01T22:51:09.864Z,18.20
2017-08-01T22:53:37.416Z,18.10
2017-08-01T22:56:04.970Z,18.10
2017-08-01T22:58:33.018Z,18.10
2017-08-01T23:01:00.571Z,18.00
2017-08-01T23:03:28.118Z,18.00
2017-08-01T23:06:00.737Z,17.90
2017-08-01T23:08:28.322Z,17.90
2017-08-01T23:10:55.916Z,17.80
2017-08-01T23:13:23.505Z,17.80
2017-08-01T23:15:51.085Z,17.80
2017-08-01T23:18:18.681Z,17.70
2017-08-01T23:20:47.033Z,17.70
2017-08-01T23:23:14.576Z,17.60
2017-08-01T23:25:42.170Z,17.60
2017-08-01T23:28:09.719Z,17.60
2017-08-01T23:30:37.310Z,17.50
2017-08-01T23:33:04.858Z,17.50
2017-08-01T23:35:33.506Z,17.40
2017-08-01T23:38:01.054Z,17.40
2017-08-01T23:40:28.594Z,17.40
2017-08-01T23:42:56.178Z,17.40
2017-08-01T23:45:24.096Z,17.30
2017-08-01T23:47:52.405Z,17.30
2017-08-01T23:50:19.950Z,17.30
2017-08-01T23:52:47.758Z,17.30
2017-08-01T23:55:15.294Z,17.30
2017-08-01T23:57:42.837Z,17.20
